sensor_id;sensor_type;location;lat;lon;timestamp;pressure;altitude;pressure_sealevel;temperature;humidity
69780;BME280;57052;55.602;38.096;2022-10-31T00:02:23;98665.22;;;2.85;57.79
69780;BME280;57052;55.602;38.096;2022-10-31T00:04:49;98645.75;;;2.89;58.27
69780;BME280;57052;55.602;38.096;2022-10-31T00:07:15;98638.97;;;2.77;58.55
69780;BME280;57052;55.602;38.096;2022-10-31T00:09:40;98644.41;;;2.92;57.91
69780;BME280;57052;55.602;38.096;2022-10-31T00:12:06;98619.75;;;2.75;57.79
69780;BME280;57052;55.602;38.096;2022-10-31T00:14:32;98614.94;;;2.77;57.90
69780;BME280;57052;55.602;38.096;2022-10-31T00:16:57;98624.91;;;2.91;58.11
69780;BME280;57052;55.602;38.096;2022-10-31T00:19:23;98618.25;;;2.99;58.03
69780;BME280;57052;55.602;38.096;2022-10-31T00:21:51;98626.22;;;2.89;57.91
69780;BME280;57052;55.602;38.096;2022-10-31T00:24:17;98605.88;;;2.78;58.29
69780;BME280;57052;55.602;38.096;2022-10-31T00:26:42;98630.56;;;3.00;57.61
69780;BME280;57052;55.602;38.096;2022-10-31T00:29:08;98622.47;;;2.85;58.04
69780;BME280;57052;55.602;38.096;2022-10-31T00:31:34;98603.28;;;2.93;58.51
69780;BME280;57052;55.602;38.096;2022-10-31T00:33:59;98608.94;;;3.06;58.05
69780;BME280;57052;55.602;38.096;2022-10-31T00:36:25;98605.34;;;2.86;58.33
69780;BME280;57052;55.602;38.096;2022-10-31T00:38:51;98606.22;;;2.96;57.94
69780;BME280;57052;55.602;38.096;2022-10-31T00:41:17;98595.25;;;2.88;57.83
69780;BME280;57052;55.602;38.096;2022-10-31T00:43:43;98614.19;;;2.86;58.26
69780;BME280;57052;55.602;38.096;2022-10-31T00:46:10;98607.31;;;2.95;57.27
69780;BME280;57052;55.602;38.096;2022-10-31T00:48:36;98626.19;;;2.84;58.21
69780;BME280;57052;55.602;38.096;2022-10-31T00:51:01;98589.03;;;2.77;58.18
69780;BME280;57052;55.602;38.096;2022-10-31T00:53:27;98589.59;;;2.84;57.83
69780;BME280;57052;55.602;38.096;2022-10-31T00:55:52;98596.34;;;2.97;57.41
69780;BME280;57052;55.602;38.096;2022-10-31T00:58:18;98608.41;;;3.04;57.76
69780;BME280;57052;55.602;38.096;2022-10-31T01:00:48;98604.88;;;2.94;57.35
69780;BME280;57052;55.602;38.096;2022-10-31T01:03:21;98596.63;;;2.95;57.10
69780;BME280;57052;55.602;38.096;2022-10-31T01:05:55;98600.28;;;2.84;57.28
69780;BME280;57052;55.602;38.096;2022-10-31T01:08:21;98588.75;;;2.79;57.66
69780;BME280;57052;55.602;38.096;2022-10-31T01:11:16;98609.88;;;2.75;57.10
69780;BME280;57052;55.602;38.096;2022-10-31T01:13:43;98605.88;;;2.78;57.46
69780;BME280;57052;55.602;38.096;2022-10-31T01:16:11;98607.50;;;2.89;57.64
69780;BME280;57052;55.602;38.096;2022-10-31T01:18:38;98600.59;;;2.93;58.06
69780;BME280;57052;55.602;38.096;2022-10-31T01:21:08;98601.69;;;2.97;57.98
69780;BME280;57052;55.602;38.096;2022-10-31T01:23:35;98609.97;;;2.95;57.37
69780;BME280;57052;55.602;38.096;2022-10-31T01:26:19;98608.03;;;2.86;57.20
69780;BME280;57052;55.602;38.096;2022-10-31T01:28:51;98596.28;;;2.87;57.34
69780;BME280;57052;55.602;38.096;2022-10-31T01:31:19;98600.31;;;2.89;57.56
69780;BME280;57052;55.602;38.096;2022-10-31T01:33:45;98602.69;;;2.86;58.24
69780;BME280;57052;55.602;38.096;2022-10-31T01:38:41;98616.03;;;2.86;57.85
69780;BME280;57052;55.602;38.096;2022-10-31T01:41:09;98579.06;;;2.63;58.06
69780;BME280;57052;55.602;38.096;2022-10-31T01:54:37;98627.81;;;2.43;58.55
69780;BME280;57052;55.602;38.096;2022-10-31T01:57:05;98593.81;;;2.33;59.64
69780;BME280;57052;55.602;38.096;2022-10-31T01:59:36;98616.13;;;2.54;59.00
69780;BME280;57052;55.602;38.096;2022-10-31T02:02:05;98614.69;;;2.41;59.46
69780;BME280;57052;55.602;38.096;2022-10-31T02:04:31;98616.34;;;2.47;59.87
69780;BME280;57052;55.602;38.096;2022-10-31T02:07:06;98625.22;;;2.53;59.94
69780;BME280;57052;55.602;38.096;2022-10-31T02:09:34;98619.25;;;2.46;60.50
69780;BME280;57052;55.602;38.096;2022-10-31T02:12:02;98622.72;;;2.41;61.28
69780;BME280;57052;55.602;38.096;2022-10-31T02:14:30;98595.66;;;2.28;60.97
69780;BME280;57052;55.602;38.096;2022-10-31T02:16:57;98629.16;;;2.45;61.51
69780;BME280;57052;55.602;38.096;2022-10-31T02:19:31;98605.53;;;2.27;61.54
69780;BME280;57052;55.602;38.096;2022-10-31T02:22:27;98635.56;;;2.44;62.22
69780;BME280;57052;55.602;38.096;2022-10-31T02:33:35;98630.25;;;2.49;62.74
69780;BME280;57052;55.602;38.096;2022-10-31T02:39:11;98624.25;;;2.32;63.51
69780;BME280;57052;55.602;38.096;2022-10-31T02:42:01;98630.81;;;2.20;64.51
69780;BME280;57052;55.602;38.096;2022-10-31T02:44:41;98639.03;;;2.13;65.41
69780;BME280;57052;55.602;38.096;2022-10-31T02:47:16;98635.56;;;2.13;65.04
69780;BME280;57052;55.602;38.096;2022-10-31T02:52:21;98634.59;;;2.24;65.19
69780;BME280;57052;55.602;38.096;2022-10-31T02:54:47;98635.34;;;2.19;64.84
69780;BME280;57052;55.602;38.096;2022-10-31T02:57:14;98612.06;;;1.83;65.99
69780;BME280;57052;55.602;38.096;2022-10-31T02:59:49;98636.97;;;1.93;66.79
69780;BME280;57052;55.602;38.096;2022-10-31T03:02:26;98639.59;;;1.88;67.80
69780;BME280;57052;55.602;38.096;2022-10-31T03:05:05;98635.66;;;1.96;67.69
69780;BME280;57052;55.602;38.096;2022-10-31T03:16:47;98636.06;;;1.83;69.65
69780;BME280;57052;55.602;38.096;2022-10-31T03:19:23;98634.56;;;1.92;68.10
69780;BME280;57052;55.602;38.096;2022-10-31T03:21:59;98634.47;;;1.82;68.08
69780;BME280;57052;55.602;38.096;2022-10-31T03:24:31;98632.56;;;1.77;68.18
69780;BME280;57052;55.602;38.096;2022-10-31T03:26:59;98636.13;;;1.88;67.86
69780;BME280;57052;55.602;38.096;2022-10-31T03:29:28;98632.81;;;1.76;68.94
69780;BME280;57052;55.602;38.096;2022-10-31T03:40:43;98607.09;;;1.65;69.17
69780;BME280;57052;55.602;38.096;2022-10-31T03:43:15;98648.97;;;1.91;69.36
69780;BME280;57052;55.602;38.096;2022-10-31T03:45:44;98639.72;;;1.72;70.79
69780;BME280;57052;55.602;38.096;2022-10-31T03:48:12;98648.19;;;1.69;70.21
69780;BME280;57052;55.602;38.096;2022-10-31T03:53:55;98653.47;;;1.64;71.57
69780;BME280;57052;55.602;38.096;2022-10-31T03:56:35;98654.09;;;1.71;70.74
69780;BME280;57052;55.602;38.096;2022-10-31T04:01:32;98645.66;;;1.79;69.11
69780;BME280;57052;55.602;38.096;2022-10-31T04:04:00;98644.59;;;1.80;69.44
69780;BME280;57052;55.602;38.096;2022-10-31T04:06:27;98651.03;;;1.84;68.65
69780;BME280;57052;55.602;38.096;2022-10-31T04:09:04;98652.13;;;1.88;69.66
69780;BME280;57052;55.602;38.096;2022-10-31T04:11:34;98643.56;;;1.86;69.36
69780;BME280;57052;55.602;38.096;2022-10-31T04:14:02;98658.13;;;2.00;68.33
69780;BME280;57052;55.602;38.096;2022-10-31T04:16:28;98640.47;;;1.94;68.39
69780;BME280;57052;55.602;38.096;2022-10-31T04:18:55;98652.84;;;2.05;68.50
69780;BME280;57052;55.602;38.096;2022-10-31T04:21:26;98657.72;;;2.13;68.65
69780;BME280;57052;55.602;38.096;2022-10-31T04:23:53;98649.06;;;2.01;68.19
69780;BME280;57052;55.602;38.096;2022-10-31T04:26:18;98669.78;;;2.21;68.35
69780;BME280;57052;55.602;38.096;2022-10-31T04:28:44;98670.59;;;2.21;67.39
69780;BME280;57052;55.602;38.096;2022-10-31T04:31:11;98676.03;;;2.31;67.49
69780;BME280;57052;55.602;38.096;2022-10-31T04:33:37;98660.69;;;2.17;67.27
69780;BME280;57052;55.602;38.096;2022-10-31T04:36:03;98670.31;;;2.18;67.45
69780;BME280;57052;55.602;38.096;2022-10-31T04:38:32;98655.91;;;2.19;67.80
69780;BME280;57052;55.602;38.096;2022-10-31T04:40:58;98668.47;;;2.23;67.90
69780;BME280;57052;55.602;38.096;2022-10-31T04:43:24;98681.59;;;2.25;67.10
69780;BME280;57052;55.602;38.096;2022-10-31T04:46:17;98671.91;;;2.19;68.15
69780;BME280;57052;55.602;38.096;2022-10-31T04:48:43;98677.56;;;2.22;67.73
69780;BME280;57052;55.602;38.096;2022-10-31T04:51:08;98663.63;;;2.15;67.87
69780;BME280;57052;55.602;38.096;2022-10-31T04:53:35;98687.22;;;2.28;67.62
69780;BME280;57052;55.602;38.096;2022-10-31T04:56:00;98639.69;;;1.99;68.50
69780;BME280;57052;55.602;38.096;2022-10-31T04:58:27;98690.13;;;2.27;68.06
69780;BME280;57052;55.602;38.096;2022-10-31T05:00:53;98686.34;;;2.18;67.72
69780;BME280;57052;55.602;38.096;2022-10-31T05:03:19;98671.63;;;2.15;68.39
69780;BME280;57052;55.602;38.096;2022-10-31T05:05:45;98692.25;;;2.25;68.29
69780;BME280;57052;55.602;38.096;2022-10-31T05:08:11;98689.31;;;2.26;68.07
69780;BME280;57052;55.602;38.096;2022-10-31T05:10:36;98674.88;;;2.22;67.76
69780;BME280;57052;55.602;38.096;2022-10-31T05:13:03;98692.25;;;2.25;68.01
69780;BME280;57052;55.602;38.096;2022-10-31T05:15:29;98690.13;;;2.27;67.42
69780;BME280;57052;55.602;38.096;2022-10-31T05:17:56;98703.28;;;2.33;67.68
69780;BME280;57052;55.602;38.096;2022-10-31T05:20:24;98686.19;;;2.34;68.40
69780;BME280;57052;55.602;38.096;2022-10-31T05:22:51;98700.19;;;2.46;68.21
69780;BME280;57052;55.602;38.096;2022-10-31T05:25:18;98719.50;;;2.58;68.17
69780;BME280;57052;55.602;38.096;2022-10-31T05:27:47;98725.44;;;2.66;67.44
69780;BME280;57052;55.602;38.096;2022-10-31T05:30:16;98719.59;;;2.69;67.86
69780;BME280;57052;55.602;38.096;2022-10-31T05:32:44;98733.81;;;2.74;67.82
69780;BME280;57052;55.602;38.096;2022-10-31T05:35:17;98733.81;;;2.74;67.97
69780;BME280;57052;55.602;38.096;2022-10-31T05:37:43;98736.47;;;2.74;67.42
69780;BME280;57052;55.602;38.096;2022-10-31T05:40:10;98739.41;;;2.73;68.07
69780;BME280;57052;55.602;38.096;2022-10-31T05:42:41;98754.28;;;2.64;67.78
69780;BME280;57052;55.602;38.096;2022-10-31T05:45:14;98748.63;;;2.55;67.81
69780;BME280;57052;55.602;38.096;2022-10-31T05:47:40;98752.09;;;2.55;68.15
69780;BME280;57052;55.602;38.096;2022-10-31T05:50:07;98738.22;;;2.58;67.87
69780;BME280;57052;55.602;38.096;2022-10-31T05:52:34;98755.41;;;2.68;68.00
69780;BME280;57052;55.602;38.096;2022-10-31T05:54:59;98756.53;;;2.77;67.46
69780;BME280;57052;55.602;38.096;2022-10-31T05:57:25;98767.75;;;2.79;67.38
69780;BME280;57052;55.602;38.096;2022-10-31T05:59:51;98755.44;;;2.73;67.31
69780;BME280;57052;55.602;38.096;2022-10-31T06:02:20;98773.09;;;2.79;66.91
69780;BME280;57052;55.602;38.096;2022-10-31T06:04:46;98773.16;;;2.84;67.48
69780;BME280;57052;55.602;38.096;2022-10-31T06:07:12;98781.13;;;2.79;67.47
69780;BME280;57052;55.602;38.096;2022-10-31T06:09:37;98796.63;;;2.77;67.07
69780;BME280;57052;55.602;38.096;2022-10-31T06:12:03;98794.44;;;2.74;67.47
69780;BME280;57052;55.602;38.096;2022-10-31T06:14:28;98790.63;;;2.65;67.26
69780;BME280;57052;55.602;38.096;2022-10-31T06:16:55;98816.31;;;2.71;67.04
69780;BME280;57052;55.602;38.096;2022-10-31T06:19:21;98805.94;;;2.74;66.54
69780;BME280;57052;55.602;38.096;2022-10-31T06:21:47;98829.31;;;2.89;66.56
69780;BME280;57052;55.602;38.096;2022-10-31T06:24:12;98828.00;;;2.91;67.29
69780;BME280;57052;55.602;38.096;2022-10-31T06:26:38;98824.28;;;2.92;66.44
69780;BME280;57052;55.602;38.096;2022-10-31T06:29:04;98846.78;;;3.01;67.05
69780;BME280;57052;55.602;38.096;2022-10-31T06:31:29;98833.09;;;2.93;66.79
69780;BME280;57052;55.602;38.096;2022-10-31T06:33:55;98836.06;;;2.96;67.07
69780;BME280;57052;55.602;38.096;2022-10-31T06:36:24;98832.06;;;2.99;66.93
69780;BME280;57052;55.602;38.096;2022-10-31T06:38:52;98842.22;;;2.97;66.41
69780;BME280;57052;55.602;38.096;2022-10-31T06:41:18;98847.91;;;3.05;66.40
69780;BME280;57052;55.602;38.096;2022-10-31T06:43:46;98861.59;;;3.14;66.64
69780;BME280;57052;55.602;38.096;2022-10-31T06:46:12;98862.72;;;3.18;66.38
69780;BME280;57052;55.602;38.096;2022-10-31T06:48:38;98873.13;;;3.14;66.89
69780;BME280;57052;55.602;38.096;2022-10-31T06:51:05;98873.19;;;3.24;66.73
69780;BME280;57052;55.602;38.096;2022-10-31T06:53:30;98894.38;;;3.31;66.76
69780;BME280;57052;55.602;38.096;2022-10-31T06:55:56;98889.28;;;3.30;66.47
69780;BME280;57052;55.602;38.096;2022-10-31T06:58:22;98880.69;;;3.22;66.39
69780;BME280;57052;55.602;38.096;2022-10-31T07:00:48;98887.16;;;3.32;66.24
69780;BME280;57052;55.602;38.096;2022-10-31T07:03:14;98914.78;;;3.42;66.20
69780;BME280;57052;55.602;38.096;2022-10-31T07:05:41;98925.53;;;3.47;66.13
69780;BME280;57052;55.602;38.096;2022-10-31T07:08:10;98921.28;;;3.51;66.20
69780;BME280;57052;55.602;38.096;2022-10-31T07:10:37;98920.81;;;3.59;66.90
69780;BME280;57052;55.602;38.096;2022-10-31T07:13:05;98920.72;;;3.49;66.69
69780;BME280;57052;55.602;38.096;2022-10-31T07:15:36;98939.84;;;3.63;66.35
69780;BME280;57052;55.602;38.096;2022-10-31T07:18:04;98940.44;;;3.70;66.65
69780;BME280;57052;55.602;38.096;2022-10-31T07:20:31;98941.66;;;3.57;66.02
69780;BME280;57052;55.602;38.096;2022-10-31T07:22:57;98943.09;;;3.70;66.21
69780;BME280;57052;55.602;38.096;2022-10-31T07:25:24;98946.56;;;3.65;66.67
69780;BME280;57052;55.602;38.096;2022-10-31T07:27:50;98940.13;;;3.66;66.69
69780;BME280;57052;55.602;38.096;2022-10-31T07:30:17;98975.03;;;3.81;66.74
69780;BME280;57052;55.602;38.096;2022-10-31T07:32:47;98985.28;;;3.89;66.25
69780;BME280;57052;55.602;38.096;2022-10-31T07:35:15;98990.31;;;3.86;65.94
69780;BME280;57052;55.602;38.096;2022-10-31T07:37:43;99001.91;;;3.97;66.56
69780;BME280;57052;55.602;38.096;2022-10-31T07:40:10;99001.41;;;4.00;66.17
69780;BME280;57052;55.602;38.096;2022-10-31T07:42:40;99002.03;;;4.12;66.48
69780;BME280;57052;55.602;38.096;2022-10-31T07:45:10;99013.78;;;4.06;66.67
69780;BME280;57052;55.602;38.096;2022-10-31T07:47:58;99012.16;;;4.05;66.53
69780;BME280;57052;55.602;38.096;2022-10-31T07:50:29;99030.94;;;4.10;65.94
69780;BME280;57052;55.602;38.096;2022-10-31T07:53:03;99042.81;;;4.24;66.57
69780;BME280;57052;55.602;38.096;2022-10-31T07:55:29;99049.53;;;4.26;65.90
69780;BME280;57052;55.602;38.096;2022-10-31T07:58:00;99051.69;;;4.29;65.95
69780;BME280;57052;55.602;38.096;2022-10-31T08:00:26;99065.13;;;4.34;66.28
69780;BME280;57052;55.602;38.096;2022-10-31T08:02:58;99060.81;;;4.28;66.25
69780;BME280;57052;55.602;38.096;2022-10-31T08:05:24;99049.25;;;4.23;66.20
69780;BME280;57052;55.602;38.096;2022-10-31T08:07:50;99046.25;;;4.19;65.94
69780;BME280;57052;55.602;38.096;2022-10-31T08:10:15;99084.16;;;4.33;66.27
69780;BME280;57052;55.602;38.096;2022-10-31T08:12:41;99074.25;;;4.38;66.28
69780;BME280;57052;55.602;38.096;2022-10-31T08:15:07;99064.31;;;4.34;66.35
69780;BME280;57052;55.602;38.096;2022-10-31T08:17:37;99081.03;;;4.51;65.99
69780;BME280;57052;55.602;38.096;2022-10-31T08:20:04;99068.16;;;4.43;65.54
69780;BME280;57052;55.602;38.096;2022-10-31T08:22:30;99076.78;;;4.55;65.49
69780;BME280;57052;55.602;38.096;2022-10-31T08:24:56;99088.59;;;4.59;65.29
69780;BME280;57052;55.602;38.096;2022-10-31T08:27:21;99089.41;;;4.60;65.30
69780;BME280;57052;55.602;38.096;2022-10-31T08:29:47;99092.16;;;4.70;65.14
69780;BME280;57052;55.602;38.096;2022-10-31T08:32:13;99110.47;;;4.83;65.30
69780;BME280;57052;55.602;38.096;2022-10-31T08:34:39;99111.81;;;4.85;64.70
69780;BME280;57052;55.602;38.096;2022-10-31T08:37:04;99105.34;;;4.81;64.84
69780;BME280;57052;55.602;38.096;2022-10-31T08:39:30;99127.69;;;4.97;64.70
69780;BME280;57052;55.602;38.096;2022-10-31T08:41:56;99111.34;;;4.93;64.25
69780;BME280;57052;55.602;38.096;2022-10-31T08:44:21;99122.34;;;4.97;64.16
69780;BME280;57052;55.602;38.096;2022-10-31T08:46:47;99137.56;;;4.91;64.02
69780;BME280;57052;55.602;38.096;2022-10-31T08:49:13;99108.81;;;4.77;63.52
69780;BME280;57052;55.602;38.096;2022-10-31T08:51:38;99141.91;;;4.97;63.70
69780;BME280;57052;55.602;38.096;2022-10-31T08:54:04;99142.47;;;4.99;63.55
69780;BME280;57052;55.602;38.096;2022-10-31T08:56:30;99158.06;;;5.07;63.28
69780;BME280;57052;55.602;38.096;2022-10-31T08:58:55;99158.13;;;5.17;63.32
69780;BME280;57052;55.602;38.096;2022-10-31T09:01:21;99151.09;;;5.11;63.00
69780;BME280;57052;55.602;38.096;2022-10-31T09:03:47;99144.66;;;5.07;62.91
69780;BME280;57052;55.602;38.096;2022-10-31T09:06:12;99146.78;;;5.05;62.44
69780;BME280;57052;55.602;38.096;2022-10-31T09:08:38;99149.75;;;5.09;62.74
69780;BME280;57052;55.602;38.096;2022-10-31T09:11:04;99141.75;;;5.19;61.97
69780;BME280;57052;55.602;38.096;2022-10-31T09:13:29;99165.78;;;5.46;62.13
69780;BME280;57052;55.602;38.096;2022-10-31T09:15:56;99164.75;;;5.62;61.13
69780;BME280;57052;55.602;38.096;2022-10-31T09:18:23;99164.75;;;5.67;61.46
69780;BME280;57052;55.602;38.096;2022-10-31T09:20:50;99172.06;;;5.81;60.82
69780;BME280;57052;55.602;38.096;2022-10-31T09:23:18;99169.34;;;5.76;60.72
69780;BME280;57052;55.602;38.096;2022-10-31T09:25:45;99174.50;;;5.83;60.42
69780;BME280;57052;55.602;38.096;2022-10-31T09:28:12;99187.38;;;5.76;60.43
69780;BME280;57052;55.602;38.096;2022-10-31T09:30:39;99178.22;;;5.77;60.12
69780;BME280;57052;55.602;38.096;2022-10-31T09:33:07;99192.97;;;5.69;60.71
69780;BME280;57052;55.602;38.096;2022-10-31T09:35:33;99202.56;;;5.55;61.27
69780;BME280;57052;55.602;38.096;2022-10-31T09:38:05;99202.53;;;5.45;61.96
69780;BME280;57052;55.602;38.096;2022-10-31T09:43:33;99236.94;;;5.53;62.07
69780;BME280;57052;55.602;38.096;2022-10-31T09:51:40;99198.38;;;5.23;61.88
69780;BME280;57052;55.602;38.096;2022-10-31T09:54:33;99220.94;;;5.27;61.49
69780;BME280;57052;55.602;38.096;2022-10-31T09:57:02;99190.16;;;4.92;61.85
69780;BME280;57052;55.602;38.096;2022-10-31T09:59:32;99233.50;;;5.16;61.46
69780;BME280;57052;55.602;38.096;2022-10-31T10:07:11;99268.69;;;5.25;60.30
69780;BME280;57052;55.602;38.096;2022-10-31T10:09:39;99271.13;;;5.31;61.06
69780;BME280;57052;55.602;38.096;2022-10-31T10:25:55;99297.38;;;5.24;60.92
69780;BME280;57052;55.602;38.096;2022-10-31T10:28:31;99324.75;;;5.26;60.30
69780;BME280;57052;55.602;38.096;2022-10-31T10:31:11;99326.06;;;5.24;59.93
69780;BME280;57052;55.602;38.096;2022-10-31T10:34:28;99321.25;;;5.21;59.70
69780;BME280;57052;55.602;38.096;2022-10-31T10:36:39;99329.59;;;5.29;59.86
69780;BME280;57052;55.602;38.096;2022-10-31T10:39:14;99332.81;;;5.26;59.72
69780;BME280;57052;55.602;38.096;2022-10-31T10:41:45;99352.66;;;5.25;60.07
69780;BME280;57052;55.602;38.096;2022-10-31T10:44:12;99336.53;;;5.20;60.41
69780;BME280;57052;55.602;38.096;2022-10-31T10:46:43;99341.97;;;5.30;59.79
69780;BME280;57052;55.602;38.096;2022-10-31T10:49:51;99329.88;;;5.28;58.55
69780;BME280;57052;55.602;38.096;2022-10-31T10:52:31;99321.09;;;5.37;59.30
69780;BME280;57052;55.602;38.096;2022-10-31T10:55:09;99321.38;;;5.36;59.18
69780;BME280;57052;55.602;38.096;2022-10-31T10:58:01;99339.25;;;5.25;58.56
69780;BME280;57052;55.602;38.096;2022-10-31T11:00:34;99319.94;;;5.23;58.99
69780;BME280;57052;55.602;38.096;2022-10-31T11:03:00;99324.47;;;5.23;59.91
69780;BME280;57052;55.602;38.096;2022-10-31T11:05:34;99322.06;;;5.26;59.51
69780;BME280;57052;55.602;38.096;2022-10-31T11:08:01;99310.25;;;5.22;60.15
69780;BME280;57052;55.602;38.096;2022-10-31T11:10:27;99324.78;;;5.31;59.96
69780;BME280;57052;55.602;38.096;2022-10-31T11:15:30;99333.53;;;5.16;60.48
69780;BME280;57052;55.602;38.096;2022-10-31T11:17:56;99322.81;;;5.16;60.48
69780;BME280;57052;55.602;38.096;2022-10-31T11:20:32;99336.75;;;5.13;60.35
69780;BME280;57052;55.602;38.096;2022-10-31T11:23:23;99316.78;;;4.99;60.63
69780;BME280;57052;55.602;38.096;2022-10-31T11:26:00;99335.66;;;5.14;60.56
69780;BME280;57052;55.602;38.096;2022-10-31T11:28:28;99325.66;;;5.05;61.03
69780;BME280;57052;55.602;38.096;2022-10-31T11:31:05;99327.63;;;5.14;60.80
69780;BME280;57052;55.602;38.096;2022-10-31T11:34:00;99339.66;;;5.12;60.56
69780;BME280;57052;55.602;38.096;2022-10-31T11:36:27;99330.22;;;5.04;60.78
69780;BME280;57052;55.602;38.096;2022-10-31T11:38:54;99338.84;;;5.11;61.10
69780;BME280;57052;55.602;38.096;2022-10-31T11:41:34;99330.78;;;5.06;60.07
69780;BME280;57052;55.602;38.096;2022-10-31T11:46:40;99319.50;;;5.04;60.87
69780;BME280;57052;55.602;38.096;2022-10-31T11:49:16;99312.75;;;5.02;61.36
69780;BME280;57052;55.602;38.096;2022-10-31T11:51:48;99305.84;;;5.06;61.25
69780;BME280;57052;55.602;38.096;2022-10-31T11:57:32;99347.41;;;5.03;60.93
69780;BME280;57052;55.602;38.096;2022-10-31T12:00:00;99344.41;;;5.00;61.61
69780;BME280;57052;55.602;38.096;2022-10-31T12:02:27;99360.31;;;5.11;61.50
69780;BME280;57052;55.602;38.096;2022-10-31T12:07:26;99365.44;;;5.13;61.46
69780;BME280;57052;55.602;38.096;2022-10-31T12:09:52;99374.00;;;5.10;61.44
69780;BME280;57052;55.602;38.096;2022-10-31T12:12:39;99375.88;;;5.09;60.75
69780;BME280;57052;55.602;38.096;2022-10-31T12:15:33;99368.28;;;5.01;61.53
69780;BME280;57052;55.602;38.096;2022-10-31T12:26:24;99371.00;;;5.06;61.47
69780;BME280;57052;55.602;38.096;2022-10-31T12:31:43;99369.09;;;5.02;61.92
69780;BME280;57052;55.602;38.096;2022-10-31T12:34:32;99365.34;;;5.03;61.74
69780;BME280;57052;55.602;38.096;2022-10-31T12:37:20;99371.78;;;5.02;62.32
69780;BME280;57052;55.602;38.096;2022-10-31T12:45:55;99376.59;;;4.73;63.63
69780;BME280;57052;55.602;38.096;2022-10-31T12:48:32;99376.28;;;4.70;64.04
69780;BME280;57052;55.602;38.096;2022-10-31T12:57:12;99375.91;;;4.61;64.92
69780;BME280;57052;55.602;38.096;2022-10-31T12:59:43;99370.38;;;4.46;64.87
69780;BME280;57052;55.602;38.096;2022-10-31T13:05:13;99381.69;;;4.48;65.69
69780;BME280;57052;55.602;38.096;2022-10-31T13:07:44;99388.63;;;4.49;65.47
69780;BME280;57052;55.602;38.096;2022-10-31T13:10:19;99386.00;;;4.54;66.33
69780;BME280;57052;55.602;38.096;2022-10-31T13:12:48;99384.34;;;4.48;66.07
69780;BME280;57052;55.602;38.096;2022-10-31T13:15:27;99378.28;;;4.36;67.14
69780;BME280;57052;55.602;38.096;2022-10-31T13:17:57;99397.56;;;4.54;66.51
69780;BME280;57052;55.602;38.096;2022-10-31T13:20:37;99410.88;;;4.49;66.05
69780;BME280;57052;55.602;38.096;2022-10-31T13:25:51;99423.53;;;4.54;66.92
69780;BME280;57052;55.602;38.096;2022-10-31T13:30:44;99417.88;;;4.50;66.37
69780;BME280;57052;55.602;38.096;2022-10-31T13:33:14;99436.38;;;4.52;66.60
69780;BME280;57052;55.602;38.096;2022-10-31T13:36:06;99431.78;;;4.47;67.54
69780;BME280;57052;55.602;38.096;2022-10-31T13:41:26;99429.97;;;4.53;67.04
69780;BME280;57052;55.602;38.096;2022-10-31T13:46:41;99440.75;;;4.58;67.04
69780;BME280;57052;55.602;38.096;2022-10-31T13:49:40;99444.81;;;4.61;67.09
69780;BME280;57052;55.602;38.096;2022-10-31T13:57:06;99447.28;;;4.67;66.12
69780;BME280;57052;55.602;38.096;2022-10-31T13:59:36;99444.59;;;4.67;66.32
69780;BME280;57052;55.602;38.096;2022-10-31T14:02:14;99426.16;;;4.49;66.51
69780;BME280;57052;55.602;38.096;2022-10-31T14:04:50;99467.41;;;4.70;66.42
69780;BME280;57052;55.602;38.096;2022-10-31T14:07:21;99452.25;;;4.59;66.15
69780;BME280;57052;55.602;38.096;2022-10-31T14:10:03;99466.31;;;4.66;66.43
69780;BME280;57052;55.602;38.096;2022-10-31T14:22:41;99475.78;;;4.73;66.21
69780;BME280;57052;55.602;38.096;2022-10-31T14:27:51;99486.72;;;4.72;66.21
69780;BME280;57052;55.602;38.096;2022-10-31T14:30:23;99492.09;;;4.72;66.64
69780;BME280;57052;55.602;38.096;2022-10-31T14:32:52;99488.59;;;4.71;66.26
69780;BME280;57052;55.602;38.096;2022-10-31T14:35:20;99495.03;;;4.70;66.40
69780;BME280;57052;55.602;38.096;2022-10-31T14:38:15;99519.16;;;4.70;66.80
69780;BME280;57052;55.602;38.096;2022-10-31T14:40:58;99488.53;;;4.66;66.27
69780;BME280;57052;55.602;38.096;2022-10-31T14:46:21;99502.06;;;4.76;66.16
69780;BME280;57052;55.602;38.096;2022-10-31T14:49:03;99508.06;;;4.83;66.34
69780;BME280;57052;55.602;38.096;2022-10-31T14:51:39;99512.91;;;4.86;66.27
69780;BME280;57052;55.602;38.096;2022-10-31T14:54:10;99510.81;;;4.88;66.08
69780;BME280;57052;55.602;38.096;2022-10-31T14:56:48;99498.94;;;4.84;65.57
69780;BME280;57052;55.602;38.096;2022-10-31T14:59:19;99507.00;;;4.84;66.28
69780;BME280;57052;55.602;38.096;2022-10-31T15:01:54;99516.25;;;4.93;66.12
69780;BME280;57052;55.602;38.096;2022-10-31T15:04:25;99499.50;;;4.86;65.80
69780;BME280;57052;55.602;38.096;2022-10-31T15:07:26;99511.59;;;4.89;66.10
69780;BME280;57052;55.602;38.096;2022-10-31T15:10:03;99538.19;;;4.90;65.91
69780;BME280;57052;55.602;38.096;2022-10-31T15:12:32;99525.84;;;4.89;65.53
69780;BME280;57052;55.602;38.096;2022-10-31T15:17:46;99530.09;;;4.85;66.06
69780;BME280;57052;55.602;38.096;2022-10-31T15:20:24;99542.19;;;4.88;65.57
69780;BME280;57052;55.602;38.096;2022-10-31T15:22:51;99549.22;;;4.94;65.59
69780;BME280;57052;55.602;38.096;2022-10-31T15:25:24;99562.81;;;4.87;65.92
69780;BME280;57052;55.602;38.096;2022-10-31T15:27:52;99571.13;;;4.86;65.88
69780;BME280;57052;55.602;38.096;2022-10-31T15:30:28;99554.97;;;4.81;65.63
69780;BME280;57052;55.602;38.096;2022-10-31T15:32:57;99565.72;;;4.64;65.89
69780;BME280;57052;55.602;38.096;2022-10-31T15:35:28;99563.97;;;4.75;65.75
69780;BME280;57052;55.602;38.096;2022-10-31T15:37:54;99568.72;;;4.68;66.18
69780;BME280;57052;55.602;38.096;2022-10-31T15:40:23;99547.44;;;4.61;65.78
69780;BME280;57052;55.602;38.096;2022-10-31T15:43:13;99585.84;;;4.67;66.38
69780;BME280;57052;55.602;38.096;2022-10-31T15:45:42;99608.13;;;4.67;65.88
69780;BME280;57052;55.602;38.096;2022-10-31T15:48:21;99594.72;;;4.67;66.22